<?xml version="1.0" encoding="UTF-8" standalone="no" ?>
<gpx xmlns="http://www.topografix.com/GPX/1/1" xmlns:xsi="http://www.w3.org/2001/XMLSchema-instance" xsi:schemaLocation="http://www.topografix.com/GPX/1/1 http://www.topografix.com/GPX/1/1/gpx.xsd" version="1.1" creator="VisuGPX - https://www.visugpx.com">
  <metadata>
    <name>Combe Laval (Drôme)</name>
    <desc><![CDATA[Randonnée difficile à partir de Saint-Laurent-en-Royan]]></desc>
  </metadata>
  <trk>
    <name><![CDATA[Combe Laval - D-]]></name>
    <trkseg>
      <trkpt lat="45.02499" lon="5.3237">
        <ele>311</ele>
        <time>2009-05-16T07:09:33Z</time>
      </trkpt>
      <trkpt lat="45.02476" lon="5.3242">
        <ele>321</ele>
        <time>2009-05-16T07:10:32.30Z</time>
      </trkpt>
      <trkpt lat="45.02441" lon="5.32456">
        <ele>326</ele>
        <time>2009-05-16T07:11:23.72Z</time>
      </trkpt>
      <trkpt lat="45.02312" lon="5.32529">
        <ele>327</ele>
        <time>2009-05-16T07:13:59.47Z</time>
      </trkpt>
      <trkpt lat="45.02267" lon="5.32547">
        <ele>327</ele>
        <time>2009-05-16T07:14:51.29Z</time>
      </trkpt>
      <trkpt lat="45.02241" lon="5.3259">
        <ele>327</ele>
        <time>2009-05-16T07:15:36.95Z</time>
      </trkpt>
      <trkpt lat="45.02245" lon="5.32658">
        <ele>329</ele>
        <time>2009-05-16T07:16:34.14Z</time>
      </trkpt>
      <trkpt lat="45.0221" lon="5.32675">
        <ele>330</ele>
        <time>2009-05-16T07:17:19.02Z</time>
      </trkpt>
      <trkpt lat="45.02117" lon="5.32658">
        <ele>335</ele>
        <time>2009-05-16T07:19:12.20Z</time>
      </trkpt>
      <trkpt lat="45.02071" lon="5.32657">
        <ele>337</ele>
        <time>2009-05-16T07:20:08.68Z</time>
      </trkpt>
      <trkpt lat="45.02025" lon="5.32664">
        <ele>340</ele>
        <time>2009-05-16T07:21:04.35Z</time>
      </trkpt>
      <trkpt lat="45.0201" lon="5.32705">
        <ele>341</ele>
        <time>2009-05-16T07:21:44Z</time>
      </trkpt>
      <trkpt lat="45.01976" lon="5.32747">
        <ele>344</ele>
        <time>2009-05-16T07:22:38.89Z</time>
      </trkpt>
      <trkpt lat="45.01932" lon="5.32782">
        <ele>346</ele>
        <time>2009-05-16T07:23:39.61Z</time>
      </trkpt>
      <trkpt lat="45.01881" lon="5.32799">
        <ele>349</ele>
        <time>2009-05-16T07:24:43.66Z</time>
      </trkpt>
      <trkpt lat="45.01833" lon="5.32818">
        <ele>351</ele>
        <time>2009-05-16T07:25:43.80Z</time>
      </trkpt>
      <trkpt lat="45.01786" lon="5.32845">
        <ele>354</ele>
        <time>2009-05-16T07:26:46.01Z</time>
      </trkpt>
      <trkpt lat="45.01746" lon="5.32877">
        <ele>357</ele>
        <time>2009-05-16T07:27:43.36Z</time>
      </trkpt>
      <trkpt lat="45.01702" lon="5.32901">
        <ele>360</ele>
        <time>2009-05-16T07:28:44.43Z</time>
      </trkpt>
      <trkpt lat="45.01662" lon="5.32934">
        <ele>365</ele>
        <time>2009-05-16T07:29:44.80Z</time>
      </trkpt>
      <trkpt lat="45.01625" lon="5.32978">
        <ele>369</ele>
        <time>2009-05-16T07:30:46.62Z</time>
      </trkpt>
      <trkpt lat="45.01585" lon="5.33015">
        <ele>374</ele>
        <time>2009-05-16T07:31:50.62Z</time>
      </trkpt>
      <trkpt lat="45.01569" lon="5.33069">
        <ele>378</ele>
        <time>2009-05-16T07:32:46.48Z</time>
      </trkpt>
      <trkpt lat="45.016" lon="5.33046">
        <ele>382</ele>
        <time>2009-05-16T07:33:32.66Z</time>
      </trkpt>
      <trkpt lat="45.01589" lon="5.33096">
        <ele>385</ele>
        <time>2009-05-16T07:34:19.88Z</time>
      </trkpt>
      <trkpt lat="45.01556" lon="5.33141">
        <ele>389</ele>
        <time>2009-05-16T07:35:18.62Z</time>
      </trkpt>
      <trkpt lat="45.01502" lon="5.33237">
        <ele>396</ele>
        <time>2009-05-16T07:37:08.10Z</time>
      </trkpt>
      <trkpt lat="45.01482" lon="5.33293">
        <ele>399</ele>
        <time>2009-05-16T07:38:02.54Z</time>
      </trkpt>
      <trkpt lat="45.01428" lon="5.33397">
        <ele>404</ele>
        <time>2009-05-16T07:39:53.36Z</time>
      </trkpt>
      <trkpt lat="45.01396" lon="5.33442">
        <ele>406</ele>
        <time>2009-05-16T07:40:47.72Z</time>
      </trkpt>
      <trkpt lat="45.01366" lon="5.33491">
        <ele>408</ele>
        <time>2009-05-16T07:41:43.13Z</time>
      </trkpt>
      <trkpt lat="45.01334" lon="5.33537">
        <ele>410</ele>
        <time>2009-05-16T07:42:38.26Z</time>
      </trkpt>
      <trkpt lat="45.01306" lon="5.33587">
        <ele>413</ele>
        <time>2009-05-16T07:43:34.11Z</time>
      </trkpt>
      <trkpt lat="45.01276" lon="5.33634">
        <ele>415</ele>
        <time>2009-05-16T07:44:29.25Z</time>
      </trkpt>
      <trkpt lat="45.01236" lon="5.33668">
        <ele>418</ele>
        <time>2009-05-16T07:45:27.27Z</time>
      </trkpt>
      <trkpt lat="45.01203" lon="5.33712">
        <ele>421</ele>
        <time>2009-05-16T07:46:23.21Z</time>
      </trkpt>
      <trkpt lat="45.01177" lon="5.33764">
        <ele>424</ele>
        <time>2009-05-16T07:47:18.65Z</time>
      </trkpt>
      <trkpt lat="45.01153" lon="5.3382">
        <ele>426</ele>
        <time>2009-05-16T07:48:15.21Z</time>
      </trkpt>
      <trkpt lat="45.011" lon="5.33924">
        <ele>432</ele>
        <time>2009-05-16T07:50:06.82Z</time>
      </trkpt>
      <trkpt lat="45.01076" lon="5.3398">
        <ele>434</ele>
        <time>2009-05-16T07:51:03.30Z</time>
      </trkpt>
      <trkpt lat="45.01045" lon="5.34031">
        <ele>437</ele>
        <time>2009-05-16T07:52:01.14Z</time>
      </trkpt>
      <trkpt lat="45.01017" lon="5.34084">
        <ele>439</ele>
        <time>2009-05-16T07:52:58.71Z</time>
      </trkpt>
      <trkpt lat="45.0099" lon="5.34139">
        <ele>442</ele>
        <time>2009-05-16T07:53:55.69Z</time>
      </trkpt>
      <trkpt lat="45.00934" lon="5.34244">
        <ele>446</ele>
        <time>2009-05-16T07:55:49.21Z</time>
      </trkpt>
      <trkpt lat="45.0088" lon="5.34355">
        <ele>452</ele>
        <time>2009-05-16T07:57:46.22Z</time>
      </trkpt>
      <trkpt lat="45.00876" lon="5.34418">
        <ele>454</ele>
        <time>2009-05-16T07:58:40.03Z</time>
      </trkpt>
      <trkpt lat="45.00847" lon="5.34465">
        <ele>456</ele>
        <time>2009-05-16T07:59:34.30Z</time>
      </trkpt>
      <trkpt lat="45.00811" lon="5.34497">
        <ele>459</ele>
        <time>2009-05-16T08:00:26.30Z</time>
      </trkpt>
      <trkpt lat="45.00715" lon="5.345">
        <ele>464</ele>
        <time>2009-05-16T08:02:24.48Z</time>
      </trkpt>
      <trkpt lat="45.00669" lon="5.34526">
        <ele>467</ele>
        <time>2009-05-16T08:03:25.65Z</time>
      </trkpt>
      <trkpt lat="45.00634" lon="5.34571">
        <ele>470</ele>
        <time>2009-05-16T08:04:23.95Z</time>
      </trkpt>
      <trkpt lat="45.00581" lon="5.34676">
        <ele>476</ele>
        <time>2009-05-16T08:06:15.99Z</time>
      </trkpt>
      <trkpt lat="45.00588" lon="5.34738">
        <ele>478</ele>
        <time>2009-05-16T08:07:11.02Z</time>
      </trkpt>
      <trkpt lat="45.00604" lon="5.34802">
        <ele>481</ele>
        <time>2009-05-16T08:08:11.27Z</time>
      </trkpt>
      <trkpt lat="45.00555" lon="5.34806">
        <ele>485</ele>
        <time>2009-05-16T08:09:14.88Z</time>
      </trkpt>
      <trkpt lat="45.00509" lon="5.34842">
        <ele>491</ele>
        <time>2009-05-16T08:10:36.60Z</time>
      </trkpt>
      <trkpt lat="45.00466" lon="5.3487">
        <ele>499</ele>
        <time>2009-05-16T08:12:14.02Z</time>
      </trkpt>
      <trkpt lat="45.00424" lon="5.34966">
        <ele>520</ele>
        <time>2009-05-16T08:15:53.30Z</time>
      </trkpt>
      <trkpt lat="45.00363" lon="5.35035">
        <ele>547</ele>
        <time>2009-05-16T08:20:07.30Z</time>
      </trkpt>
      <trkpt lat="45.00322" lon="5.35111">
        <ele>573</ele>
        <time>2009-05-16T08:23:54.11Z</time>
      </trkpt>
      <trkpt lat="45.00301" lon="5.35193">
        <ele>595</ele>
        <time>2009-05-16T08:27:10.29Z</time>
      </trkpt>
      <trkpt lat="45.0027" lon="5.35282">
        <ele>620</ele>
        <time>2009-05-16T08:31:00.50Z</time>
      </trkpt>
      <trkpt lat="45.00265" lon="5.35366">
        <ele>642</ele>
        <time>2009-05-16T08:34:31.85Z</time>
      </trkpt>
      <trkpt lat="45.00253" lon="5.35449">
        <ele>667</ele>
        <time>2009-05-16T08:38:48.31Z</time>
      </trkpt>
      <trkpt lat="45.00218" lon="5.35537">
        <ele>705</ele>
        <time>2009-05-16T08:44:44.32Z</time>
      </trkpt>
      <trkpt lat="45.00229" lon="5.35603">
        <ele>733</ele>
        <time>2009-05-16T08:48:58.09Z</time>
      </trkpt>
      <trkpt lat="45.00243" lon="5.35675">
        <ele>764</ele>
        <time>2009-05-16T08:53:27.81Z</time>
      </trkpt>
      <trkpt lat="45.00244" lon="5.35754">
        <ele>795</ele>
        <time>2009-05-16T08:57:36.86Z</time>
      </trkpt>
      <trkpt lat="45.00204" lon="5.35809">
        <ele>819</ele>
        <time>2009-05-16T09:00:28.43Z</time>
      </trkpt>
      <trkpt lat="45.00104" lon="5.35903">
        <ele>855</ele>
        <time>2009-05-16T09:06:07.27Z</time>
      </trkpt>
      <trkpt lat="44.99842" lon="5.3595">
        <ele>940</ele>
        <time>2009-05-16T09:19:20.28Z</time>
      </trkpt>
      <trkpt lat="44.99771" lon="5.35935">
        <ele>967</ele>
        <time>2009-05-16T09:23:18.23Z</time>
      </trkpt>
      <trkpt lat="44.99835" lon="5.35995">
        <ele>995</ele>
        <time>2009-05-16T09:27:27.04Z</time>
      </trkpt>
      <trkpt lat="44.99816" lon="5.36026">
        <ele>1005</ele>
        <time>2009-05-16T09:28:48.27Z</time>
      </trkpt>
      <trkpt lat="44.9977" lon="5.36048">
        <ele>1019</ele>
        <time>2009-05-16T09:30:40.87Z</time>
      </trkpt>
      <trkpt lat="44.99694" lon="5.36093">
        <ele>1039</ele>
        <time>2009-05-16T09:33:15.53Z</time>
      </trkpt>
      <trkpt lat="44.99651" lon="5.36168">
        <ele>1049</ele>
        <time>2009-05-16T09:34:53.47Z</time>
      </trkpt>
      <trkpt lat="44.99603" lon="5.36163">
        <ele>1053</ele>
        <time>2009-05-16T09:35:54.38Z</time>
      </trkpt>
      <trkpt lat="44.99567" lon="5.36111">
        <ele>1056</ele>
        <time>2009-05-16T09:36:55.57Z</time>
      </trkpt>
      <trkpt lat="44.99508" lon="5.36134">
        <ele>1058</ele>
        <time>2009-05-16T09:38:05.94Z</time>
      </trkpt>
      <trkpt lat="44.99452" lon="5.36169">
        <ele>1058</ele>
        <time>2009-05-16T09:39:13.95Z</time>
      </trkpt>
      <trkpt lat="44.99403" lon="5.36174">
        <ele>1058</ele>
        <time>2009-05-16T09:40:08.42Z</time>
      </trkpt>
      <trkpt lat="44.99371" lon="5.36149">
        <ele>1056</ele>
        <time>2009-05-16T09:40:48.91Z</time>
      </trkpt>
      <trkpt lat="44.99339" lon="5.36146">
        <ele>1055</ele>
        <time>2009-05-16T09:41:25.55Z</time>
      </trkpt>
      <trkpt lat="44.9929" lon="5.36181">
        <ele>1052</ele>
        <time>2009-05-16T09:42:27.44Z</time>
      </trkpt>
      <trkpt lat="44.99232" lon="5.36184">
        <ele>1047</ele>
        <time>2009-05-16T09:43:35.90Z</time>
      </trkpt>
      <trkpt lat="44.99182" lon="5.3617">
        <ele>1041</ele>
        <time>2009-05-16T09:44:36.96Z</time>
      </trkpt>
      <trkpt lat="44.99124" lon="5.36147">
        <ele>1035</ele>
        <time>2009-05-16T09:45:46.79Z</time>
      </trkpt>
      <trkpt lat="44.99068" lon="5.36119">
        <ele>1030</ele>
        <time>2009-05-16T09:46:55.56Z</time>
      </trkpt>
      <trkpt lat="44.99017" lon="5.36093">
        <ele>1025</ele>
        <time>2009-05-16T09:47:57.60Z</time>
      </trkpt>
      <trkpt lat="44.98975" lon="5.36052">
        <ele>1022</ele>
        <time>2009-05-16T09:48:55.20Z</time>
      </trkpt>
      <trkpt lat="44.98933" lon="5.35998">
        <ele>1020</ele>
        <time>2009-05-16T09:49:57.49Z</time>
      </trkpt>
      <trkpt lat="44.9885" lon="5.35916">
        <ele>1021</ele>
        <time>2009-05-16T09:51:54.04Z</time>
      </trkpt>
      <trkpt lat="44.98812" lon="5.35866">
        <ele>1023</ele>
        <time>2009-05-16T09:52:57.87Z</time>
      </trkpt>
      <trkpt lat="44.9878" lon="5.35811">
        <ele>1026</ele>
        <time>2009-05-16T09:53:59.54Z</time>
      </trkpt>
      <trkpt lat="44.9876" lon="5.35751">
        <ele>1029</ele>
        <time>2009-05-16T09:54:56.78Z</time>
      </trkpt>
      <trkpt lat="44.98733" lon="5.35692">
        <ele>1031</ele>
        <time>2009-05-16T09:55:56.08Z</time>
      </trkpt>
      <trkpt lat="44.98711" lon="5.35628">
        <ele>1033</ele>
        <time>2009-05-16T09:56:56.32Z</time>
      </trkpt>
      <trkpt lat="44.98676" lon="5.35586">
        <ele>1035</ele>
        <time>2009-05-16T09:57:50.79Z</time>
      </trkpt>
      <trkpt lat="44.98723" lon="5.35576">
        <ele>1037</ele>
        <time>2009-05-16T09:58:47.82Z</time>
      </trkpt>
      <trkpt lat="44.98733" lon="5.35556">
        <ele>1038</ele>
        <time>2009-05-16T09:59:08.69Z</time>
      </trkpt>
      <trkpt lat="44.98688" lon="5.35523">
        <ele>1040</ele>
        <time>2009-05-16T10:00:11.21Z</time>
      </trkpt>
      <trkpt lat="44.98641" lon="5.35492">
        <ele>1044</ele>
        <time>2009-05-16T10:01:17.88Z</time>
      </trkpt>
      <trkpt lat="44.98552" lon="5.35444">
        <ele>1053</ele>
        <time>2009-05-16T10:03:23.10Z</time>
      </trkpt>
      <trkpt lat="44.98508" lon="5.35415">
        <ele>1058</ele>
        <time>2009-05-16T10:04:27.88Z</time>
      </trkpt>
      <trkpt lat="44.98463" lon="5.35389">
        <ele>1063</ele>
        <time>2009-05-16T10:05:33.92Z</time>
      </trkpt>
      <trkpt lat="44.98469" lon="5.35327">
        <ele>1068</ele>
        <time>2009-05-16T10:06:37.16Z</time>
      </trkpt>
      <trkpt lat="44.98489" lon="5.35264">
        <ele>1074</ele>
        <time>2009-05-16T10:07:45.22Z</time>
      </trkpt>
      <trkpt lat="44.98481" lon="5.35195">
        <ele>1079</ele>
        <time>2009-05-16T10:08:49.12Z</time>
      </trkpt>
      <trkpt lat="44.98473" lon="5.35129">
        <ele>1083</ele>
        <time>2009-05-16T10:09:50.41Z</time>
      </trkpt>
      <trkpt lat="44.98467" lon="5.3508">
        <ele>1086</ele>
        <time>2009-05-16T10:10:36.01Z</time>
      </trkpt>
      <trkpt lat="44.98437" lon="5.35029">
        <ele>1090</ele>
        <time>2009-05-16T10:11:33.67Z</time>
      </trkpt>
      <trkpt lat="44.98393" lon="5.35009">
        <ele>1092</ele>
        <time>2009-05-16T10:12:30.64Z</time>
      </trkpt>
      <trkpt lat="44.98345" lon="5.35009">
        <ele>1095</ele>
        <time>2009-05-16T10:13:28.27Z</time>
      </trkpt>
      <trkpt lat="44.98297" lon="5.35006">
        <ele>1097</ele>
        <time>2009-05-16T10:14:25.81Z</time>
      </trkpt>
      <trkpt lat="44.98253" lon="5.3498">
        <ele>1099</ele>
        <time>2009-05-16T10:15:24.20Z</time>
      </trkpt>
      <trkpt lat="44.98213" lon="5.34942">
        <ele>1102</ele>
        <time>2009-05-16T10:16:22.03Z</time>
      </trkpt>
      <trkpt lat="44.98183" lon="5.34892">
        <ele>1104</ele>
        <time>2009-05-16T10:17:18.07Z</time>
      </trkpt>
      <trkpt lat="44.98158" lon="5.34836">
        <ele>1106</ele>
        <time>2009-05-16T10:18:14.20Z</time>
      </trkpt>
      <trkpt lat="44.98131" lon="5.34784">
        <ele>1108</ele>
        <time>2009-05-16T10:19:08.18Z</time>
      </trkpt>
      <trkpt lat="44.98107" lon="5.34727">
        <ele>1109</ele>
        <time>2009-05-16T10:20:00.03Z</time>
      </trkpt>
      <trkpt lat="44.98071" lon="5.34607">
        <ele>1108</ele>
        <time>2009-05-16T10:21:42.87Z</time>
      </trkpt>
      <trkpt lat="44.98038" lon="5.34561">
        <ele>1107</ele>
        <time>2009-05-16T10:22:34.47Z</time>
      </trkpt>
      <trkpt lat="44.98019" lon="5.34526">
        <ele>1106</ele>
        <time>2009-05-16T10:23:09.32Z</time>
      </trkpt>
      <trkpt lat="44.97975" lon="5.34503">
        <ele>1104</ele>
        <time>2009-05-16T10:24:00.86Z</time>
      </trkpt>
      <trkpt lat="44.97936" lon="5.34469">
        <ele>1101</ele>
        <time>2009-05-16T10:24:52.76Z</time>
      </trkpt>
      <trkpt lat="44.97908" lon="5.34417">
        <ele>1099</ele>
        <time>2009-05-16T10:25:43.72Z</time>
      </trkpt>
      <trkpt lat="44.97884" lon="5.34361">
        <ele>1096</ele>
        <time>2009-05-16T10:26:35.51Z</time>
      </trkpt>
      <trkpt lat="44.97851" lon="5.34315">
        <ele>1094</ele>
        <time>2009-05-16T10:27:27.17Z</time>
      </trkpt>
      <trkpt lat="44.97808" lon="5.3429">
        <ele>1091</ele>
        <time>2009-05-16T10:28:19Z</time>
      </trkpt>
      <trkpt lat="44.97763" lon="5.34274">
        <ele>1088</ele>
        <time>2009-05-16T10:29:12.49Z</time>
      </trkpt>
      <trkpt lat="44.97718" lon="5.34253">
        <ele>1084</ele>
        <time>2009-05-16T10:30:06.77Z</time>
      </trkpt>
      <trkpt lat="44.97593" lon="5.3416">
        <ele>1073</ele>
        <time>2009-05-16T10:32:47.48Z</time>
      </trkpt>
      <trkpt lat="44.97551" lon="5.34131">
        <ele>1070</ele>
        <time>2009-05-16T10:33:39.89Z</time>
      </trkpt>
      <trkpt lat="44.9751" lon="5.34105">
        <ele>1067</ele>
        <time>2009-05-16T10:34:31.23Z</time>
      </trkpt>
      <trkpt lat="44.97464" lon="5.34088">
        <ele>1064</ele>
        <time>2009-05-16T10:35:24.19Z</time>
      </trkpt>
      <trkpt lat="44.97371" lon="5.34056">
        <ele>1058</ele>
        <time>2009-05-16T10:37:11.90Z</time>
      </trkpt>
      <trkpt lat="44.97324" lon="5.34039">
        <ele>1055</ele>
        <time>2009-05-16T10:38:06.36Z</time>
      </trkpt>
      <trkpt lat="44.97277" lon="5.34021">
        <ele>1052</ele>
        <time>2009-05-16T10:39:01.07Z</time>
      </trkpt>
      <trkpt lat="44.97229" lon="5.34004">
        <ele>1048</ele>
        <time>2009-05-16T10:39:57.59Z</time>
      </trkpt>
      <trkpt lat="44.97184" lon="5.33985">
        <ele>1045</ele>
        <time>2009-05-16T10:40:50.09Z</time>
      </trkpt>
      <trkpt lat="44.9714" lon="5.33964">
        <ele>1042</ele>
        <time>2009-05-16T10:41:41.61Z</time>
      </trkpt>
      <trkpt lat="44.97099" lon="5.33936">
        <ele>1040</ele>
        <time>2009-05-16T10:42:32.94Z</time>
      </trkpt>
      <trkpt lat="44.97064" lon="5.33888">
        <ele>1037</ele>
        <time>2009-05-16T10:43:26.54Z</time>
      </trkpt>
      <trkpt lat="44.97065" lon="5.33823">
        <ele>1035</ele>
        <time>2009-05-16T10:44:17.58Z</time>
      </trkpt>
      <trkpt lat="44.97104" lon="5.33787">
        <ele>1033</ele>
        <time>2009-05-16T10:45:09.24Z</time>
      </trkpt>
      <trkpt lat="44.97151" lon="5.33761">
        <ele>1032</ele>
        <time>2009-05-16T10:46:05.79Z</time>
      </trkpt>
      <trkpt lat="44.97204" lon="5.33738">
        <ele>1032</ele>
        <time>2009-05-16T10:47:07.87Z</time>
      </trkpt>
      <trkpt lat="44.97254" lon="5.33706">
        <ele>1033</ele>
        <time>2009-05-16T10:48:12.66Z</time>
      </trkpt>
      <trkpt lat="44.97286" lon="5.3362">
        <ele>1035</ele>
        <time>2009-05-16T10:49:31.75Z</time>
      </trkpt>
      <trkpt lat="44.97312" lon="5.33511">
        <ele>1036</ele>
        <time>2009-05-16T10:51:01.95Z</time>
      </trkpt>
      <trkpt lat="44.97394" lon="5.33456">
        <ele>1033</ele>
        <time>2009-05-16T10:52:42.94Z</time>
      </trkpt>
      <trkpt lat="44.97474" lon="5.33431">
        <ele>1030</ele>
        <time>2009-05-16T10:54:14.49Z</time>
      </trkpt>
      <trkpt lat="44.97437" lon="5.33392">
        <ele>1028</ele>
        <time>2009-05-16T10:55:06.29Z</time>
      </trkpt>
      <trkpt lat="44.97439" lon="5.33331">
        <ele>1028</ele>
        <time>2009-05-16T10:55:54.53Z</time>
      </trkpt>
      <trkpt lat="44.97443" lon="5.33272">
        <ele>1028</ele>
        <time>2009-05-16T10:56:42.41Z</time>
      </trkpt>
      <trkpt lat="44.97465" lon="5.33215">
        <ele>1029</ele>
        <time>2009-05-16T10:57:34.62Z</time>
      </trkpt>
      <trkpt lat="44.97462" lon="5.33151">
        <ele>1029</ele>
        <time>2009-05-16T10:58:25.43Z</time>
      </trkpt>
      <trkpt lat="44.97456" lon="5.33142">
        <ele>1030</ele>
        <time>2009-05-16T10:58:35.40Z</time>
      </trkpt>
      <trkpt lat="44.97497" lon="5.33131">
        <ele>1030</ele>
        <time>2009-05-16T10:59:21.87Z</time>
      </trkpt>
      <trkpt lat="44.97539" lon="5.33126">
        <ele>1029</ele>
        <time>2009-05-16T11:00:08.69Z</time>
      </trkpt>
      <trkpt lat="44.97581" lon="5.3314">
        <ele>1028</ele>
        <time>2009-05-16T11:00:56.93Z</time>
      </trkpt>
      <trkpt lat="44.97623" lon="5.33161">
        <ele>1027</ele>
        <time>2009-05-16T11:01:45.88Z</time>
      </trkpt>
      <trkpt lat="44.97664" lon="5.33184">
        <ele>1026</ele>
        <time>2009-05-16T11:02:35.43Z</time>
      </trkpt>
      <trkpt lat="44.977" lon="5.33223">
        <ele>1027</ele>
        <time>2009-05-16T11:03:30.71Z</time>
      </trkpt>
      <trkpt lat="44.97739" lon="5.33247">
        <ele>1031</ele>
        <time>2009-05-16T11:04:31.79Z</time>
      </trkpt>
      <trkpt lat="44.9778" lon="5.33251">
        <ele>1037</ele>
        <time>2009-05-16T11:05:41.61Z</time>
      </trkpt>
      <trkpt lat="44.97826" lon="5.33212">
        <ele>1047</ele>
        <time>2009-05-16T11:07:26.08Z</time>
      </trkpt>
      <trkpt lat="44.97875" lon="5.33163">
        <ele>1061</ele>
        <time>2009-05-16T11:09:35.28Z</time>
      </trkpt>
      <trkpt lat="44.97921" lon="5.33141">
        <ele>1073</ele>
        <time>2009-05-16T11:11:20.44Z</time>
      </trkpt>
      <trkpt lat="44.97934" lon="5.3306">
        <ele>1087</ele>
        <time>2009-05-16T11:13:20.48Z</time>
      </trkpt>
      <trkpt lat="44.97912" lon="5.32954">
        <ele>1104</ele>
        <time>2009-05-16T11:15:43.08Z</time>
      </trkpt>
      <trkpt lat="44.97872" lon="5.32865">
        <ele>1116</ele>
        <time>2009-05-16T11:17:39.20Z</time>
      </trkpt>
      <trkpt lat="44.97845" lon="5.32813">
        <ele>1121</ele>
        <time>2009-05-16T11:18:40.43Z</time>
      </trkpt>
      <trkpt lat="44.9788" lon="5.32762">
        <ele>1126</ele>
        <time>2009-05-16T11:19:45.11Z</time>
      </trkpt>
      <trkpt lat="44.97918" lon="5.32727">
        <ele>1129</ele>
        <time>2009-05-16T11:20:40.43Z</time>
      </trkpt>
      <trkpt lat="44.97964" lon="5.32725">
        <ele>1131</ele>
        <time>2009-05-16T11:21:35.73Z</time>
      </trkpt>
      <trkpt lat="44.97973" lon="5.32774">
        <ele>1133</ele>
        <time>2009-05-16T11:22:19.48Z</time>
      </trkpt>
      <trkpt lat="44.97992" lon="5.32845">
        <ele>1136</ele>
        <time>2009-05-16T11:23:25.44Z</time>
      </trkpt>
      <trkpt lat="44.98028" lon="5.32883">
        <ele>1139</ele>
        <time>2009-05-16T11:24:23.72Z</time>
      </trkpt>
      <trkpt lat="44.98071" lon="5.32915">
        <ele>1144</ele>
        <time>2009-05-16T11:25:29.48Z</time>
      </trkpt>
      <trkpt lat="44.98115" lon="5.32941">
        <ele>1149</ele>
        <time>2009-05-16T11:26:30.56Z</time>
      </trkpt>
      <trkpt lat="44.98164" lon="5.32947">
        <ele>1153</ele>
        <time>2009-05-16T11:27:32.15Z</time>
      </trkpt>
      <trkpt lat="44.98211" lon="5.32954">
        <ele>1155</ele>
        <time>2009-05-16T11:28:27.55Z</time>
      </trkpt>
      <trkpt lat="44.98258" lon="5.32967">
        <ele>1156</ele>
        <time>2009-05-16T11:29:19.83Z</time>
      </trkpt>
      <trkpt lat="44.98304" lon="5.32974">
        <ele>1155</ele>
        <time>2009-05-16T11:30:11.96Z</time>
      </trkpt>
      <trkpt lat="44.98363" lon="5.32949">
        <ele>1153</ele>
        <time>2009-05-16T11:31:20.53Z</time>
      </trkpt>
      <trkpt lat="44.98432" lon="5.32931">
        <ele>1149</ele>
        <time>2009-05-16T11:32:37.72Z</time>
      </trkpt>
      <trkpt lat="44.9849" lon="5.329">
        <ele>1146</ele>
        <time>2009-05-16T11:33:47.47Z</time>
      </trkpt>
      <trkpt lat="44.98541" lon="5.32879">
        <ele>1144</ele>
        <time>2009-05-16T11:34:46.16Z</time>
      </trkpt>
      <trkpt lat="44.98635" lon="5.32939">
        <ele>1139</ele>
        <time>2009-05-16T11:36:40.83Z</time>
      </trkpt>
      <trkpt lat="44.98684" lon="5.32983">
        <ele>1135</ele>
        <time>2009-05-16T11:37:47.04Z</time>
      </trkpt>
      <trkpt lat="44.98735" lon="5.33018">
        <ele>1131</ele>
        <time>2009-05-16T11:38:52.56Z</time>
      </trkpt>
      <trkpt lat="44.98793" lon="5.33028">
        <ele>1126</ele>
        <time>2009-05-16T11:39:59.42Z</time>
      </trkpt>
      <trkpt lat="44.98838" lon="5.33035">
        <ele>1122</ele>
        <time>2009-05-16T11:40:52.15Z</time>
      </trkpt>
      <trkpt lat="44.98885" lon="5.33039">
        <ele>1118</ele>
        <time>2009-05-16T11:41:47.15Z</time>
      </trkpt>
      <trkpt lat="44.98934" lon="5.33048">
        <ele>1113</ele>
        <time>2009-05-16T11:42:44.65Z</time>
      </trkpt>
      <trkpt lat="44.98984" lon="5.3307">
        <ele>1109</ele>
        <time>2009-05-16T11:43:45.19Z</time>
      </trkpt>
      <trkpt lat="44.99028" lon="5.33093">
        <ele>1104</ele>
        <time>2009-05-16T11:44:40.06Z</time>
      </trkpt>
      <trkpt lat="44.99072" lon="5.33118">
        <ele>1100</ele>
        <time>2009-05-16T11:45:36.38Z</time>
      </trkpt>
      <trkpt lat="44.99119" lon="5.3313">
        <ele>1095</ele>
        <time>2009-05-16T11:46:32.32Z</time>
      </trkpt>
      <trkpt lat="44.99163" lon="5.33157">
        <ele>1090</ele>
        <time>2009-05-16T11:47:30.39Z</time>
      </trkpt>
      <trkpt lat="44.99212" lon="5.33148">
        <ele>1084</ele>
        <time>2009-05-16T11:48:29.89Z</time>
      </trkpt>
      <trkpt lat="44.99258" lon="5.33127">
        <ele>1078</ele>
        <time>2009-05-16T11:49:29.56Z</time>
      </trkpt>
      <trkpt lat="44.99301" lon="5.33103">
        <ele>1071</ele>
        <time>2009-05-16T11:50:27.85Z</time>
      </trkpt>
      <trkpt lat="44.99348" lon="5.33089">
        <ele>1064</ele>
        <time>2009-05-16T11:51:29Z</time>
      </trkpt>
      <trkpt lat="44.99407" lon="5.33057">
        <ele>1054</ele>
        <time>2009-05-16T11:52:53.16Z</time>
      </trkpt>
      <trkpt lat="44.99467" lon="5.33034">
        <ele>1043</ele>
        <time>2009-05-16T11:54:15.17Z</time>
      </trkpt>
      <trkpt lat="44.99579" lon="5.3301">
        <ele>1025</ele>
        <time>2009-05-16T11:56:40.76Z</time>
      </trkpt>
      <trkpt lat="44.9963" lon="5.32984">
        <ele>1017</ele>
        <time>2009-05-16T11:57:48.11Z</time>
      </trkpt>
      <trkpt lat="44.99675" lon="5.32968">
        <ele>1010</ele>
        <time>2009-05-16T11:58:46.86Z</time>
      </trkpt>
      <trkpt lat="44.99723" lon="5.3296">
        <ele>1003</ele>
        <time>2009-05-16T11:59:48.01Z</time>
      </trkpt>
      <trkpt lat="44.9977" lon="5.32936">
        <ele>995</ele>
        <time>2009-05-16T12:00:55.36Z</time>
      </trkpt>
      <trkpt lat="44.99789" lon="5.32821">
        <ele>980</ele>
        <time>2009-05-16T12:02:52.06Z</time>
      </trkpt>
      <trkpt lat="44.9984" lon="5.3284">
        <ele>970</ele>
        <time>2009-05-16T12:04:05.02Z</time>
      </trkpt>
      <trkpt lat="44.99862" lon="5.32771">
        <ele>961</ele>
        <time>2009-05-16T12:05:13.17Z</time>
      </trkpt>
      <trkpt lat="44.99899" lon="5.32756">
        <ele>956</ele>
        <time>2009-05-16T12:05:59.13Z</time>
      </trkpt>
      <trkpt lat="44.99942" lon="5.32795">
        <ele>950</ele>
        <time>2009-05-16T12:06:59.94Z</time>
      </trkpt>
      <trkpt lat="44.99948" lon="5.32875">
        <ele>945</ele>
        <time>2009-05-16T12:08:04.74Z</time>
      </trkpt>
      <trkpt lat="44.99988" lon="5.32925">
        <ele>942</ele>
        <time>2009-05-16T12:09:03.88Z</time>
      </trkpt>
      <trkpt lat="45.00025" lon="5.32985">
        <ele>939</ele>
        <time>2009-05-16T12:10:07.94Z</time>
      </trkpt>
      <trkpt lat="45.00077" lon="5.33003">
        <ele>934</ele>
        <time>2009-05-16T12:11:11.80Z</time>
      </trkpt>
      <trkpt lat="45.00136" lon="5.33007">
        <ele>927</ele>
        <time>2009-05-16T12:12:22.74Z</time>
      </trkpt>
      <trkpt lat="45.00175" lon="5.33063">
        <ele>921</ele>
        <time>2009-05-16T12:13:28.77Z</time>
      </trkpt>
      <trkpt lat="45.00187" lon="5.33126">
        <ele>916</ele>
        <time>2009-05-16T12:14:23.76Z</time>
      </trkpt>
      <trkpt lat="45.00188" lon="5.33187">
        <ele>912</ele>
        <time>2009-05-16T12:15:11.95Z</time>
      </trkpt>
      <trkpt lat="45.00172" lon="5.33231">
        <ele>911</ele>
        <time>2009-05-16T12:15:51.30Z</time>
      </trkpt>
      <trkpt lat="45.00158" lon="5.33218">
        <ele>911</ele>
        <time>2009-05-16T12:16:10.97Z</time>
      </trkpt>
      <trkpt lat="45.0019" lon="5.33187">
        <ele>911</ele>
        <time>2009-05-16T12:16:55.17Z</time>
      </trkpt>
      <trkpt lat="45.00186" lon="5.33126">
        <ele>912</ele>
        <time>2009-05-16T12:17:45.33Z</time>
      </trkpt>
      <trkpt lat="45.0018" lon="5.33052">
        <ele>913</ele>
        <time>2009-05-16T12:18:45.99Z</time>
      </trkpt>
      <trkpt lat="45.00217" lon="5.3301">
        <ele>914</ele>
        <time>2009-05-16T12:19:38.47Z</time>
      </trkpt>
      <trkpt lat="45.00266" lon="5.3301">
        <ele>913</ele>
        <time>2009-05-16T12:20:33.71Z</time>
      </trkpt>
      <trkpt lat="45.00314" lon="5.33017">
        <ele>911</ele>
        <time>2009-05-16T12:21:27.65Z</time>
      </trkpt>
      <trkpt lat="45.00457" lon="5.32996">
        <ele>900</ele>
        <time>2009-05-16T12:24:12.63Z</time>
      </trkpt>
      <trkpt lat="45.00502" lon="5.32978">
        <ele>896</ele>
        <time>2009-05-16T12:25:06.53Z</time>
      </trkpt>
      <trkpt lat="45.00536" lon="5.32936">
        <ele>893</ele>
        <time>2009-05-16T12:25:56.41Z</time>
      </trkpt>
      <trkpt lat="45.00568" lon="5.32889">
        <ele>891</ele>
        <time>2009-05-16T12:26:47.65Z</time>
      </trkpt>
      <trkpt lat="45.00597" lon="5.32841">
        <ele>888</ele>
        <time>2009-05-16T12:27:37.54Z</time>
      </trkpt>
      <trkpt lat="45.00598" lon="5.32776">
        <ele>886</ele>
        <time>2009-05-16T12:28:28.72Z</time>
      </trkpt>
      <trkpt lat="45.00551" lon="5.32668">
        <ele>881</ele>
        <time>2009-05-16T12:30:09.21Z</time>
      </trkpt>
      <trkpt lat="45.00565" lon="5.32605">
        <ele>879</ele>
        <time>2009-05-16T12:31:01.03Z</time>
      </trkpt>
      <trkpt lat="45.00564" lon="5.32544">
        <ele>877</ele>
        <time>2009-05-16T12:31:49.29Z</time>
      </trkpt>
      <trkpt lat="45.00536" lon="5.32498">
        <ele>875</ele>
        <time>2009-05-16T12:32:37.51Z</time>
      </trkpt>
      <trkpt lat="45.00405" lon="5.32313">
        <ele>865</ele>
        <time>2009-05-16T12:36:02.89Z</time>
      </trkpt>
      <trkpt lat="45.00369" lon="5.32269">
        <ele>863</ele>
        <time>2009-05-16T12:36:55.95Z</time>
      </trkpt>
      <trkpt lat="45.0033" lon="5.32234">
        <ele>860</ele>
        <time>2009-05-16T12:37:48.06Z</time>
      </trkpt>
      <trkpt lat="45.00303" lon="5.3217">
        <ele>857</ele>
        <time>2009-05-16T12:38:47.13Z</time>
      </trkpt>
      <trkpt lat="45.0031" lon="5.321">
        <ele>853</ele>
        <time>2009-05-16T12:39:45.56Z</time>
      </trkpt>
      <trkpt lat="45.00334" lon="5.32051">
        <ele>849</ele>
        <time>2009-05-16T12:40:36.64Z</time>
      </trkpt>
      <trkpt lat="45.00397" lon="5.32048">
        <ele>841</ele>
        <time>2009-05-16T12:41:57.82Z</time>
      </trkpt>
      <trkpt lat="45.00461" lon="5.32045">
        <ele>829</ele>
        <time>2009-05-16T12:43:29.41Z</time>
      </trkpt>
      <trkpt lat="45.00533" lon="5.32035">
        <ele>815</ele>
        <time>2009-05-16T12:45:14.16Z</time>
      </trkpt>
      <trkpt lat="45.00584" lon="5.3203">
        <ele>805</ele>
        <time>2009-05-16T12:46:18.10Z</time>
      </trkpt>
      <trkpt lat="45.00666" lon="5.32076">
        <ele>794</ele>
        <time>2009-05-16T12:48:01.24Z</time>
      </trkpt>
      <trkpt lat="45.00733" lon="5.32084">
        <ele>790</ele>
        <time>2009-05-16T12:49:16.36Z</time>
      </trkpt>
      <trkpt lat="45.00797" lon="5.32075">
        <ele>786</ele>
        <time>2009-05-16T12:50:30.40Z</time>
      </trkpt>
      <trkpt lat="45.00843" lon="5.32066">
        <ele>782</ele>
        <time>2009-05-16T12:51:25.51Z</time>
      </trkpt>
      <trkpt lat="45.00904" lon="5.32041">
        <ele>774</ele>
        <time>2009-05-16T12:52:45.29Z</time>
      </trkpt>
      <trkpt lat="45.00953" lon="5.32004">
        <ele>764</ele>
        <time>2009-05-16T12:54:08.88Z</time>
      </trkpt>
      <trkpt lat="45.00987" lon="5.31963">
        <ele>753</ele>
        <time>2009-05-16T12:55:26.64Z</time>
      </trkpt>
      <trkpt lat="45.00995" lon="5.32021">
        <ele>741</ele>
        <time>2009-05-16T12:56:48.06Z</time>
      </trkpt>
      <trkpt lat="45.01021" lon="5.32078">
        <ele>726</ele>
        <time>2009-05-16T12:58:32.61Z</time>
      </trkpt>
      <trkpt lat="45.01042" lon="5.32099">
        <ele>716</ele>
        <time>2009-05-16T12:59:37.25Z</time>
      </trkpt>
      <trkpt lat="45.01026" lon="5.32182">
        <ele>692</ele>
        <time>2009-05-16T13:02:21.40Z</time>
      </trkpt>
      <trkpt lat="45.00976" lon="5.32287">
        <ele>653</ele>
        <time>2009-05-16T13:06:47.83Z</time>
      </trkpt>
      <trkpt lat="45.00962" lon="5.32498">
        <ele>581</ele>
        <time>2009-05-16T13:14:29.67Z</time>
      </trkpt>
      <trkpt lat="45.0102" lon="5.32486">
        <ele>553</ele>
        <time>2009-05-16T13:17:14.26Z</time>
      </trkpt>
      <trkpt lat="45.01141" lon="5.32471">
        <ele>503</ele>
        <time>2009-05-16T13:22:10.30Z</time>
      </trkpt>
      <trkpt lat="45.01218" lon="5.32457">
        <ele>477</ele>
        <time>2009-05-16T13:24:41.35Z</time>
      </trkpt>
      <trkpt lat="45.01272" lon="5.32413">
        <ele>461</ele>
        <time>2009-05-16T13:26:22.67Z</time>
      </trkpt>
      <trkpt lat="45.01308" lon="5.32365">
        <ele>450</ele>
        <time>2009-05-16T13:27:33.86Z</time>
      </trkpt>
      <trkpt lat="45.01335" lon="5.32307">
        <ele>442</ele>
        <time>2009-05-16T13:28:36.26Z</time>
      </trkpt>
      <trkpt lat="45.01366" lon="5.32265">
        <ele>436</ele>
        <time>2009-05-16T13:29:28Z</time>
      </trkpt>
      <trkpt lat="45.01395" lon="5.32211">
        <ele>431</ele>
        <time>2009-05-16T13:30:24.36Z</time>
      </trkpt>
      <trkpt lat="45.01414" lon="5.32154">
        <ele>427</ele>
        <time>2009-05-16T13:31:16.54Z</time>
      </trkpt>
      <trkpt lat="45.01451" lon="5.32099">
        <ele>423</ele>
        <time>2009-05-16T13:32:19.13Z</time>
      </trkpt>
      <trkpt lat="45.01459" lon="5.32123">
        <ele>421</ele>
        <time>2009-05-16T13:32:41.07Z</time>
      </trkpt>
      <trkpt lat="45.01449" lon="5.32208">
        <ele>415</ele>
        <time>2009-05-16T13:33:52.81Z</time>
      </trkpt>
      <trkpt lat="45.01422" lon="5.32285">
        <ele>409</ele>
        <time>2009-05-16T13:35:03.83Z</time>
      </trkpt>
      <trkpt lat="45.0139" lon="5.32352">
        <ele>404</ele>
        <time>2009-05-16T13:36:09.28Z</time>
      </trkpt>
      <trkpt lat="45.01378" lon="5.3242">
        <ele>401</ele>
        <time>2009-05-16T13:37:05.08Z</time>
      </trkpt>
      <trkpt lat="45.01369" lon="5.32485">
        <ele>398</ele>
        <time>2009-05-16T13:37:57.22Z</time>
      </trkpt>
      <trkpt lat="45.01343" lon="5.32562">
        <ele>396</ele>
        <time>2009-05-16T13:39:04.45Z</time>
      </trkpt>
      <trkpt lat="45.01298" lon="5.32623">
        <ele>393</ele>
        <time>2009-05-16T13:40:14.29Z</time>
      </trkpt>
      <trkpt lat="45.01256" lon="5.32664">
        <ele>391</ele>
        <time>2009-05-16T13:41:10.13Z</time>
      </trkpt>
      <trkpt lat="45.01212" lon="5.32712">
        <ele>387</ele>
        <time>2009-05-16T13:42:14.15Z</time>
      </trkpt>
      <trkpt lat="45.01235" lon="5.32753">
        <ele>384</ele>
        <time>2009-05-16T13:42:56.72Z</time>
      </trkpt>
      <trkpt lat="45.01256" lon="5.32797">
        <ele>381</ele>
        <time>2009-05-16T13:43:41.13Z</time>
      </trkpt>
      <trkpt lat="45.01245" lon="5.32742">
        <ele>377</ele>
        <time>2009-05-16T13:44:29.89Z</time>
      </trkpt>
      <trkpt lat="45.01284" lon="5.32691">
        <ele>371</ele>
        <time>2009-05-16T13:45:33.91Z</time>
      </trkpt>
      <trkpt lat="45.01329" lon="5.32656">
        <ele>365</ele>
        <time>2009-05-16T13:46:36.02Z</time>
      </trkpt>
      <trkpt lat="45.01379" lon="5.32619">
        <ele>358</ele>
        <time>2009-05-16T13:47:43.88Z</time>
      </trkpt>
      <trkpt lat="45.01418" lon="5.32571">
        <ele>352</ele>
        <time>2009-05-16T13:48:46.56Z</time>
      </trkpt>
      <trkpt lat="45.01452" lon="5.32507">
        <ele>345</ele>
        <time>2009-05-16T13:49:54.79Z</time>
      </trkpt>
      <trkpt lat="45.01499" lon="5.3246">
        <ele>339</ele>
        <time>2009-05-16T13:51:02.18Z</time>
      </trkpt>
      <trkpt lat="45.01546" lon="5.32425">
        <ele>334</ele>
        <time>2009-05-16T13:52:04.37Z</time>
      </trkpt>
      <trkpt lat="45.01592" lon="5.32377">
        <ele>329</ele>
        <time>2009-05-16T13:53:08.87Z</time>
      </trkpt>
      <trkpt lat="45.01668" lon="5.32272">
        <ele>323</ele>
        <time>2009-05-16T13:55:07.09Z</time>
      </trkpt>
      <trkpt lat="45.017" lon="5.32195">
        <ele>320</ele>
        <time>2009-05-16T13:56:17.59Z</time>
      </trkpt>
      <trkpt lat="45.01758" lon="5.32145">
        <ele>316</ele>
        <time>2009-05-16T13:57:32.68Z</time>
      </trkpt>
      <trkpt lat="45.01799" lon="5.32094">
        <ele>314</ele>
        <time>2009-05-16T13:58:33.76Z</time>
      </trkpt>
      <trkpt lat="45.01827" lon="5.32029">
        <ele>311</ele>
        <time>2009-05-16T13:59:33.06Z</time>
      </trkpt>
      <trkpt lat="45.01839" lon="5.31946">
        <ele>308</ele>
        <time>2009-05-16T14:00:40.55Z</time>
      </trkpt>
      <trkpt lat="45.01872" lon="5.31809">
        <ele>301</ele>
        <time>2009-05-16T14:02:38.57Z</time>
      </trkpt>
      <trkpt lat="45.01919" lon="5.31833">
        <ele>296</ele>
        <time>2009-05-16T14:03:37.85Z</time>
      </trkpt>
      <trkpt lat="45.01961" lon="5.3187">
        <ele>290</ele>
        <time>2009-05-16T14:04:38.10Z</time>
      </trkpt>
      <trkpt lat="45.01966" lon="5.31916">
        <ele>286</ele>
        <time>2009-05-16T14:05:18.72Z</time>
      </trkpt>
      <trkpt lat="45.02016" lon="5.31913">
        <ele>279</ele>
        <time>2009-05-16T14:06:19.91Z</time>
      </trkpt>
      <trkpt lat="45.02064" lon="5.31928">
        <ele>273</ele>
        <time>2009-05-16T14:07:19.57Z</time>
      </trkpt>
      <trkpt lat="45.02109" lon="5.31952">
        <ele>266</ele>
        <time>2009-05-16T14:08:18.80Z</time>
      </trkpt>
      <trkpt lat="45.0215" lon="5.31961">
        <ele>261</ele>
        <time>2009-05-16T14:09:08.09Z</time>
      </trkpt>
      <trkpt lat="45.02158" lon="5.32029">
        <ele>257</ele>
        <time>2009-05-16T14:10:04.23Z</time>
      </trkpt>
      <trkpt lat="45.02155" lon="5.32102">
        <ele>253</ele>
        <time>2009-05-16T14:11:01.39Z</time>
      </trkpt>
      <trkpt lat="45.02122" lon="5.32157">
        <ele>253</ele>
        <time>2009-05-16T14:12:01.49Z</time>
      </trkpt>
      <trkpt lat="45.02093" lon="5.3222">
        <ele>256</ele>
        <time>2009-05-16T14:13:09.76Z</time>
      </trkpt>
      <trkpt lat="45.02125" lon="5.32201">
        <ele>260</ele>
        <time>2009-05-16T14:14:04.31Z</time>
      </trkpt>
      <trkpt lat="45.02172" lon="5.32182">
        <ele>268</ele>
        <time>2009-05-16T14:15:30.67Z</time>
      </trkpt>
      <trkpt lat="45.02237" lon="5.32206">
        <ele>281</ele>
        <time>2009-05-16T14:17:29.11Z</time>
      </trkpt>
      <trkpt lat="45.02277" lon="5.32237">
        <ele>288</ele>
        <time>2009-05-16T14:18:37.64Z</time>
      </trkpt>
      <trkpt lat="45.02313" lon="5.32277">
        <ele>293</ele>
        <time>2009-05-16T14:19:35.72Z</time>
      </trkpt>
      <trkpt lat="45.02335" lon="5.32328">
        <ele>295</ele>
        <time>2009-05-16T14:20:26.39Z</time>
      </trkpt>
      <trkpt lat="45.02368" lon="5.32354">
        <ele>297</ele>
        <time>2009-05-16T14:21:12.88Z</time>
      </trkpt>
      <trkpt lat="45.02414" lon="5.32369">
        <ele>300</ele>
        <time>2009-05-16T14:22:21.41Z</time>
      </trkpt>
      <trkpt lat="45.02464" lon="5.32371">
        <ele>309</ele>
        <time>2009-05-16T14:24:19.12Z</time>
      </trkpt>
      <trkpt lat="45.02509" lon="5.32354">
        <ele>325</ele>
        <time>2009-05-16T14:26:43.12Z</time>
      </trkpt>
    </trkseg>
  </trk>
</gpx>